Time;durP1;ratioP1;P1;durP2;ratioP2;P2;SDS_P1;SDS_P2;PMS_P1;PMS_P2;Temp;Humidity;BMP_temperature;BMP_pressure;BME280_temperature;BME280_humidity;BME280_pressure;Samples;Min_cycle;Max_cycle;Signal;HPM_P1;HPM_P2
2023/07/29 00:01:12;;;;;;;2.97;1.40;;;23.30;99.90;;;;;;5007455;28;20225;-31
2023/07/29 00:03:41;;;;;;;1.33;1.23;;;23.30;99.90;;;;;;5007022;28;20271;-30
2023/07/29 00:06:09;;;;;;;1.73;1.20;;;23.30;99.90;;;;;;5005838;28;20216;-31
2023/07/29 00:08:39;;;;;;;3.70;1.10;;;23.30;99.90;;;;;;5004456;28;20695;-30
2023/07/29 00:11:06;;;;;;;1.60;1.40;;;23.30;99.90;;;;;;5005277;28;20672;-30
2023/07/29 00:13:35;;;;;;;1.70;1.50;;;23.30;99.90;;;;;;5005248;28;20197;-31
2023/07/29 00:16:06;;;;;;;2.65;1.35;;;23.30;99.90;;;;;;5014065;28;20585;-30
2023/07/29 00:18:35;;;;;;;1.80;1.50;;;23.30;99.90;;;;;;5026646;28;20209;-30
2023/07/29 00:21:05;;;;;;;1.20;1.10;;;23.30;99.90;;;;;;5019189;28;20248;-24
2023/07/29 00:23:32;;;;;;;3.25;1.17;;;23.20;99.90;;;;;;5004649;28;20672;-24
2023/07/29 00:26:01;;;;;;;1.52;1.20;;;23.20;99.90;;;;;;5007837;28;20809;-24
2023/07/29 00:28:31;;;;;;;1.42;1.25;;;23.20;99.90;;;;;;5010847;28;20205;-24
2023/07/29 00:31:02;;;;;;;1.95;1.15;;;23.20;99.90;;;;;;5009876;28;20205;-24
2023/07/29 00:33:31;;;;;;;1.75;1.13;;;23.10;99.90;;;;;;5010885;28;20711;-24
2023/07/29 00:36:02;;;;;;;2.65;1.30;;;23.10;99.90;;;;;;5009906;28;20217;-24
2023/07/29 00:38:29;;;;;;;1.17;1.00;;;23.10;99.90;;;;;;5008650;28;20303;-24
2023/07/29 00:41:02;;;;;;;1.30;1.10;;;23.10;99.90;;;;;;5011097;28;20232;-24
2023/07/29 00:43:29;;;;;;;3.38;1.25;;;23.10;99.90;;;;;;5010492;28;20256;-24
2023/07/29 00:45:57;;;;;;;1.30;1.05;;;23.10;99.90;;;;;;5010582;28;20220;-24
2023/07/29 00:48:27;;;;;;;1.63;1.27;;;23.00;99.90;;;;;;5008979;28;20193;-24
2023/07/29 00:50:57;;;;;;;1.73;0.93;;;23.00;99.90;;;;;;5008957;28;20205;-24
2023/07/29 00:53:24;;;;;;;1.20;1.10;;;23.00;99.90;;;;;;5009784;28;20561;-25
2023/07/29 00:55:51;;;;;;;1.42;0.95;;;22.90;99.90;;;;;;5010516;28;20221;-24
2023/07/29 00:58:19;;;;;;;3.70;1.23;;;22.90;99.90;;;;;;5009240;28;20569;-24
2023/07/29 01:00:47;;;;;;;1.67;0.80;;;22.80;99.90;;;;;;5008226;28;20218;-24
2023/07/29 01:03:17;;;;;;;0.73;0.73;;;22.80;99.90;;;;;;5011814;28;20249;-24
2023/07/29 01:06:11;;;;;;;0.85;0.85;;;22.70;99.90;;;;;;5024470;28;20247;-24
2023/07/29 01:09:05;;;;;;;2.38;1.20;;;22.70;99.90;;;;;;5015654;28;20200;-24
2023/07/29 01:11:44;;;;;;;1.27;0.93;;;22.70;99.90;;;;;;5028962;28;20220;-24
2023/07/29 01:14:29;;;;;;;1.90;0.88;;;22.60;99.90;;;;;;5028469;28;20208;-24
2023/07/29 01:17:02;;;;;;;1.83;0.93;;;22.60;99.90;;;;;;5027089;28;20207;-22
2023/07/29 01:20:00;;;;;;;2.53;1.20;;;22.50;99.90;;;;;;5029518;28;20225;-24
2023/07/29 01:22:29;;;;;;;1.27;1.05;;;22.40;99.90;;;;;;5022611;28;20715;-24
2023/07/29 01:24:58;;;;;;;1.13;1.02;;;22.30;99.90;;;;;;5029312;28;20213;-24
2023/07/29 01:27:26;;;;;;;1.92;1.00;;;22.30;99.90;;;;;;5027618;28;20213;-24
2023/07/29 01:29:57;;;;;;;1.27;0.90;;;22.20;99.90;;;;;;5027937;28;20557;-23
2023/07/29 01:32:50;;;;;;;1.08;0.90;;;22.30;99.90;;;;;;5026157;28;20201;-24
2023/07/29 01:35:28;;;;;;;1.00;0.90;;;22.20;99.90;;;;;;5028073;28;20221;-24
2023/07/29 01:38:03;;;;;;;1.15;1.00;;;22.20;99.90;;;;;;5028477;28;20577;-24
2023/07/29 01:40:30;;;;;;;1.52;1.00;;;22.20;99.90;;;;;;5029665;28;20208;-24
2023/07/29 01:43:02;;;;;;;1.38;1.10;;;22.20;99.90;;;;;;5012257;28;20671;-24
2023/07/29 01:45:31;;;;;;;1.67;1.00;;;22.10;99.90;;;;;;5028080;28;20209;-24
2023/07/29 01:48:01;;;;;;;1.45;1.02;;;22.00;99.90;;;;;;5029047;28;20670;-24
2023/07/29 01:50:28;;;;;;;1.90;1.27;;;21.90;99.90;;;;;;5027369;28;20312;-25
2023/07/29 01:52:55;;;;;;;1.48;1.05;;;21.90;99.90;;;;;;5026611;28;20213;-24
2023/07/29 01:55:23;;;;;;;1.17;1.05;;;21.90;99.90;;;;;;5029029;28;20201;-24
2023/07/29 01:57:52;;;;;;;1.23;1.10;;;21.80;99.90;;;;;;5028974;28;20213;-24
2023/07/29 02:00:23;;;;;;;1.80;1.17;;;21.80;99.90;;;;;;5027525;28;20216;-24
2023/07/29 02:02:50;;;;;;;1.98;1.10;;;21.80;99.90;;;;;;5028541;28;20577;-24
2023/07/29 02:05:17;;;;;;;2.95;1.33;;;21.80;99.90;;;;;;5026168;28;20593;-24
2023/07/29 02:07:45;;;;;;;1.98;1.20;;;21.80;99.90;;;;;;5027888;28;20188;-24
2023/07/29 02:10:12;;;;;;;1.58;1.10;;;21.70;99.90;;;;;;5016104;28;20229;-24
2023/07/29 02:12:42;;;;;;;1.73;1.10;;;21.70;99.90;;;;;;5007440;28;20216;-24
2023/07/29 02:15:12;;;;;;;1.42;1.33;;;21.70;99.90;;;;;;5007738;28;20210;-24
2023/07/29 02:17:42;;;;;;;2.55;1.10;;;21.60;99.90;;;;;;5007874;28;20699;-24
2023/07/29 02:20:10;;;;;;;1.33;1.15;;;21.60;99.90;;;;;;5007292;28;20209;-24
2023/07/29 02:22:38;;;;;;;2.78;1.20;;;21.60;99.90;;;;;;5006422;28;20249;-24
2023/07/29 02:25:07;;;;;;;2.40;1.25;;;21.60;99.90;;;;;;5008936;28;20206;-24
2023/07/29 02:27:35;;;;;;;1.17;0.82;;;21.60;99.90;;;;;;5008616;28;20630;-24
2023/07/29 02:30:03;;;;;;;1.48;1.10;;;21.50;99.90;;;;;;5008826;28;20190;-24
2023/07/29 02:32:35;;;;;;;1.35;1.20;;;21.50;99.90;;;;;;5008207;28;20217;-24
2023/07/29 02:35:02;;;;;;;1.00;1.00;;;21.50;99.90;;;;;;5008574;28;20768;-24
2023/07/29 02:37:29;;;;;;;1.67;1.15;;;21.50;99.90;;;;;;5005999;28;20225;-24
2023/07/29 02:40:00;;;;;;;3.05;1.20;;;21.50;99.90;;;;;;5007051;28;20609;-24
2023/07/29 02:42:27;;;;;;;3.40;1.20;;;21.40;99.90;;;;;;5008136;28;20226;-24
2023/07/29 02:44:57;;;;;;;1.33;1.10;;;21.40;99.90;;;;;;5007982;28;20224;-24
2023/07/29 02:47:26;;;;;;;2.75;1.10;;;21.40;99.90;;;;;;5008016;28;20205;-24
2023/07/29 02:49:59;;;;;;;1.80;1.10;;;21.40;99.90;;;;;;5006685;28;20672;-24
2023/07/29 02:52:29;;;;;;;3.13;1.13;;;21.40;99.90;;;;;;5018253;28;20216;-24
2023/07/29 02:54:56;;;;;;;2.55;1.35;;;21.30;99.90;;;;;;5027845;28;20234;-24
2023/07/29 02:57:25;;;;;;;2.00;1.30;;;21.30;99.90;;;;;;5025860;28;20641;-24
2023/07/29 02:59:52;;;;;;;2.05;1.42;;;21.30;99.90;;;;;;5027737;28;20208;-24
2023/07/29 03:02:22;;;;;;;4.00;1.55;;;21.30;99.90;;;;;;5025995;28;20237;-24
2023/07/29 03:04:49;;;;;;;3.85;1.40;;;21.30;99.90;;;;;;5012667;28;20209;-24
2023/07/29 03:07:17;;;;;;;1.63;1.30;;;21.30;99.90;;;;;;5006872;28;20206;-24
2023/07/29 03:09:45;;;;;;;2.63;1.15;;;21.30;99.90;;;;;;5008002;28;20279;-24
2023/07/29 03:12:12;;;;;;;2.22;1.23;;;21.30;99.90;;;;;;5007436;28;20225;-24
2023/07/29 03:14:41;;;;;;;3.05;1.45;;;21.20;99.90;;;;;;5022631;28;20205;-24
2023/07/29 03:17:08;;;;;;;3.25;1.40;;;21.20;99.90;;;;;;5006535;28;20210;-24
2023/07/29 03:19:37;;;;;;;1.90;1.40;;;21.10;99.90;;;;;;5007835;28;20733;-24
2023/07/29 03:22:09;;;;;;;2.95;1.60;;;21.20;99.90;;;;;;5006956;28;20227;-24
2023/07/29 03:24:39;;;;;;;1.95;1.23;;;21.10;99.90;;;;;;5008609;28;20585;-24
2023/07/29 03:27:06;;;;;;;1.85;1.55;;;21.10;99.90;;;;;;5008020;28;20205;-24
2023/07/29 03:29:34;;;;;;;1.30;1.20;;;21.10;99.90;;;;;;5007433;28;20210;-24
2023/07/29 03:32:01;;;;;;;2.25;1.35;;;21.10;99.90;;;;;;5007087;28;20205;-24
2023/07/29 03:34:28;;;;;;;2.80;1.40;;;21.00;99.90;;;;;;5007524;28;20664;-24
2023/07/29 03:36:58;;;;;;;3.40;1.85;;;21.10;99.90;;;;;;5005035;28;20201;-24
2023/07/29 03:39:27;;;;;;;1.83;1.33;;;21.00;99.90;;;;;;5007198;28;20304;-25
2023/07/29 03:41:54;;;;;;;2.08;1.35;;;21.00;99.90;;;;;;5005373;28;20228;-24
2023/07/29 03:44:25;;;;;;;3.75;1.40;;;21.00;99.90;;;;;;4989627;28;20197;-24
2023/07/29 03:46:52;;;;;;;2.22;1.35;;;20.90;99.90;;;;;;5007335;28;20209;-24
2023/07/29 03:49:24;;;;;;;1.65;1.38;;;20.90;99.90;;;;;;5021771;28;20201;-24
2023/07/29 03:51:51;;;;;;;2.38;1.30;;;20.90;99.90;;;;;;5006484;28;20200;-24
2023/07/29 03:54:21;;;;;;;2.45;1.55;;;20.90;99.90;;;;;;5021848;28;20675;-24
2023/07/29 03:56:48;;;;;;;3.05;1.55;;;20.90;99.90;;;;;;5021431;28;20198;-24
2023/07/29 03:59:15;;;;;;;2.42;1.20;;;20.90;99.90;;;;;;5012947;28;20213;-24
2023/07/29 04:01:43;;;;;;;1.50;1.40;;;20.90;99.90;;;;;;5005893;28;20213;-25
2023/07/29 04:04:14;;;;;;;1.83;1.42;;;20.90;99.90;;;;;;5007070;28;20213;-24
2023/07/29 04:06:42;;;;;;;1.40;1.30;;;20.90;99.90;;;;;;5004819;28;20691;-24
2023/07/29 04:09:09;;;;;;;2.15;1.45;;;20.80;99.90;;;;;;5005317;28;20201;-24
2023/07/29 04:11:36;;;;;;;2.78;1.30;;;20.80;99.90;;;;;;5005306;28;20205;-25
2023/07/29 04:14:03;;;;;;;3.17;1.30;;;20.80;99.90;;;;;;5007195;28;20592;-24
2023/07/29 04:16:31;;;;;;;2.95;1.50;;;20.80;99.90;;;;;;5006849;28;20233;-25
2023/07/29 04:18:58;;;;;;;2.13;1.50;;;20.80;99.90;;;;;;5007103;28;20213;-25
2023/07/29 04:21:26;;;;;;;2.35;1.40;;;20.80;99.90;;;;;;5006393;28;20267;-25
2023/07/29 04:23:55;;;;;;;1.90;1.60;;;20.80;99.90;;;;;;5005371;28;20206;-24
2023/07/29 04:26:23;;;;;;;2.08;1.60;;;20.80;99.90;;;;;;5006655;28;20208;-24
2023/07/29 04:28:52;;;;;;;2.05;1.60;;;20.80;99.90;;;;;;5005444;28;20209;-25
2023/07/29 04:31:20;;;;;;;2.53;1.60;;;20.80;99.90;;;;;;5005106;28;20202;-24
2023/07/29 04:33:47;;;;;;;1.85;1.25;;;20.70;99.90;;;;;;5007308;28;20194;-24
2023/07/29 04:36:14;;;;;;;2.22;1.42;;;20.70;99.90;;;;;;5005764;28;20194;-24
2023/07/29 04:38:44;;;;;;;1.48;1.35;;;20.70;99.90;;;;;;5006368;28;20245;-24
2023/07/29 04:41:14;;;;;;;3.33;1.40;;;20.70;99.90;;;;;;5005048;28;20292;-24
2023/07/29 04:43:41;;;;;;;3.47;1.90;;;20.70;99.90;;;;;;5006395;28;20234;-24
2023/07/29 04:46:08;;;;;;;2.08;1.70;;;20.70;99.90;;;;;;5004850;28;20202;-24
2023/07/29 04:48:36;;;;;;;3.03;1.85;;;20.70;99.90;;;;;;5006711;28;20194;-24
2023/07/29 04:51:03;;;;;;;2.63;1.50;;;20.60;99.90;;;;;;5005495;28;20210;-24
2023/07/29 04:53:30;;;;;;;2.67;1.67;;;20.70;99.90;;;;;;5010574;28;20217;-24
2023/07/29 04:55:58;;;;;;;3.45;2.10;;;20.70;99.90;;;;;;5006287;28;20217;-24
2023/07/29 04:58:28;;;;;;;3.08;1.55;;;20.60;99.90;;;;;;5004554;28;20209;-25
2023/07/29 05:00:56;;;;;;;1.42;1.30;;;20.60;99.90;;;;;;5024132;28;20215;-24
2023/07/29 05:03:23;;;;;;;2.60;1.60;;;20.60;99.90;;;;;;5019242;28;20257;-24
2023/07/29 05:05:53;;;;;;;2.67;1.70;;;20.70;99.90;;;;;;5018507;28;20201;-24
2023/07/29 05:08:23;;;;;;;1.40;1.20;;;20.60;99.90;;;;;;5013677;28;20212;-24
2023/07/29 05:10:53;;;;;;;3.38;1.63;;;20.70;99.90;;;;;;5024528;28;20197;-24
2023/07/29 05:13:23;;;;;;;3.15;1.70;;;20.70;99.90;;;;;;5027488;28;20228;-24
2023/07/29 05:15:51;;;;;;;2.90;1.30;;;20.70;99.90;;;;;;5025495;28;20227;-24
2023/07/29 05:18:20;;;;;;;1.95;1.40;;;20.70;99.90;;;;;;5020109;28;20653;-24
2023/07/29 05:20:50;;;;;;;2.28;1.30;;;20.70;99.90;;;;;;5029341;28;20201;-24
2023/07/29 05:23:17;;;;;;;2.70;1.52;;;20.70;99.90;;;;;;5027370;28;20225;-24
2023/07/29 05:25:44;;;;;;;1.52;1.42;;;20.70;99.90;;;;;;5044094;28;20205;-24
2023/07/29 05:28:11;;;;;;;2.33;1.50;;;20.70;99.90;;;;;;5029309;28;20201;-24
2023/07/29 05:30:40;;;;;;;1.67;1.50;;;20.70;99.90;;;;;;5029485;28;20244;-25
2023/07/29 05:33:09;;;;;;;1.80;1.15;;;20.70;99.90;;;;;;5027701;28;20251;-24
2023/07/29 05:35:37;;;;;;;2.33;1.30;;;20.70;99.90;;;;;;5028031;28;20231;-24
2023/07/29 05:38:06;;;;;;;1.98;1.45;;;20.80;99.90;;;;;;5026493;28;20718;-24
2023/07/29 05:40:38;;;;;;;2.85;1.40;;;20.80;99.90;;;;;;5026225;28;20308;-24
2023/07/29 05:43:05;;;;;;;1.98;1.50;;;20.80;99.90;;;;;;5010699;28;20367;-24
2023/07/29 05:45:32;;;;;;;3.70;1.65;;;20.80;99.90;;;;;;5008318;28;20216;-24
2023/07/29 05:47:59;;;;;;;2.67;1.70;;;20.80;99.90;;;;;;5012618;28;20264;-24
2023/07/29 05:50:32;;;;;;;2.17;1.35;;;20.80;99.90;;;;;;5014518;28;20209;-24
2023/07/29 05:52:59;;;;;;;2.97;1.52;;;20.80;99.90;;;;;;5009331;28;20209;-24
2023/07/29 05:55:29;;;;;;;2.13;1.30;;;20.90;99.90;;;;;;5007737;28;20676;-24
2023/07/29 05:57:57;;;;;;;2.15;1.27;;;20.90;99.90;;;;;;5015759;28;20225;-24
2023/07/29 06:00:24;;;;;;;1.70;1.30;;;20.90;99.90;;;;;;5012569;28;20356;-24
2023/07/29 06:02:51;;;;;;;2.97;1.33;;;20.90;99.90;;;;;;5010462;28;20221;-24
2023/07/29 06:05:19;;;;;;;3.58;1.38;;;21.00;99.90;;;;;;5026433;28;20302;-24
2023/07/29 06:07:47;;;;;;;4.82;1.70;;;21.00;99.90;;;;;;5016607;28;21100;-24
2023/07/29 06:10:24;;;;;;;1.98;1.40;;;21.00;99.90;;;;;;5028769;28;20208;-24
2023/07/29 06:12:53;;;;;;;1.20;1.10;;;21.10;99.90;;;;;;5027657;28;20220;-24
2023/07/29 06:15:22;;;;;;;2.45;1.30;;;21.20;99.90;;;;;;5020428;28;20225;-24
2023/07/29 06:17:56;;;;;;;1.70;1.42;;;21.10;99.90;;;;;;5017096;28;20236;-24
2023/07/29 06:20:23;;;;;;;3.70;1.30;;;21.10;99.90;;;;;;5015694;28;20205;-24
2023/07/29 06:23:10;;;;;;;4.40;1.13;;;21.10;99.90;;;;;;5024217;28;20283;-24
2023/07/29 06:25:38;;;;;;;1.25;1.00;;;21.20;99.90;;;;;;5043032;28;20707;-24
2023/07/29 06:28:07;;;;;;;1.88;1.20;;;21.20;99.90;;;;;;5028072;28;20205;-30
2023/07/29 06:30:36;;;;;;;2.08;1.33;;;21.20;99.90;;;;;;5029488;28;20642;-30
2023/07/29 06:33:04;;;;;;;2.10;1.10;;;21.20;99.90;;;;;;5010397;28;20213;-30
2023/07/29 06:35:31;;;;;;;2.60;1.20;;;21.20;99.90;;;;;;5022512;28;20304;-30
2023/07/29 06:37:58;;;;;;;1.80;1.25;;;21.30;99.90;;;;;;5025748;28;21020;-30
2023/07/29 06:40:28;;;;;;;2.22;1.42;;;21.30;99.90;;;;;;5007549;28;20220;-30
2023/07/29 06:42:58;;;;;;;2.03;1.33;;;21.30;99.90;;;;;;5008107;28;20635;-30
2023/07/29 06:45:28;;;;;;;1.38;1.25;;;21.40;99.90;;;;;;5008052;28;20806;-30
2023/07/29 06:47:57;;;;;;;2.35;1.23;;;21.40;99.90;;;;;;5019816;28;20583;-30
2023/07/29 06:50:27;;;;;;;1.83;1.08;;;21.40;99.90;;;;;;5022992;28;20205;-30
2023/07/29 06:52:56;;;;;;;2.17;1.10;;;21.50;99.90;;;;;;5015024;28;20212;-30
2023/07/29 06:55:23;;;;;;;1.45;1.17;;;21.50;99.90;;;;;;5042630;28;20209;-30
2023/07/29 06:58:00;;;;;;;1.83;1.00;;;21.60;99.90;;;;;;5037599;28;20323;-30
2023/07/29 07:00:27;;;;;;;2.60;1.10;;;21.70;99.90;;;;;;5033891;28;20722;-30
2023/07/29 07:02:57;;;;;;;2.28;1.00;;;21.70;99.90;;;;;;5006775;28;20221;-30
2023/07/29 07:05:27;;;;;;;1.17;1.02;;;21.80;99.90;;;;;;5012580;28;20225;-30
2023/07/29 07:07:54;;;;;;;2.53;1.50;;;21.90;99.90;;;;;;5010889;28;20307;-30
2023/07/29 07:10:25;;;;;;;1.30;1.15;;;21.90;99.90;;;;;;5012430;28;20200;-30
2023/07/29 07:12:58;;;;;;;1.92;0.98;;;21.90;99.90;;;;;;5025934;28;20208;-30
2023/07/29 07:15:27;;;;;;;1.50;1.08;;;22.00;99.90;;;;;;5025418;28;20295;-30
2023/07/29 07:17:54;;;;;;;1.27;1.05;;;22.00;99.90;;;;;;5023830;28;20554;-30
2023/07/29 07:20:24;;;;;;;1.65;1.10;;;22.10;99.90;;;;;;5023528;28;20209;-30
2023/07/29 07:22:53;;;;;;;1.10;0.90;;;22.20;99.90;;;;;;5031979;28;20563;-30
2023/07/29 07:25:20;;;;;;;1.55;0.90;;;22.20;99.90;;;;;;5012463;28;20233;-30
2023/07/29 07:27:50;;;;;;;1.27;1.10;;;22.20;99.90;;;;;;5019572;28;20193;-30
2023/07/29 07:30:20;;;;;;;1.88;0.90;;;22.20;99.90;;;;;;5013174;28;20203;-30
2023/07/29 07:32:47;;;;;;;1.67;1.00;;;22.30;99.90;;;;;;5013506;28;20234;-30
2023/07/29 07:35:14;;;;;;;1.17;1.05;;;22.30;99.90;;;;;;5009357;28;20209;-30
2023/07/29 07:37:46;;;;;;;1.40;0.80;;;22.30;99.90;;;;;;5011974;28;20324;-28
2023/07/29 07:40:13;;;;;;;3.33;1.00;;;22.30;99.90;;;;;;5007198;28;20597;-30
2023/07/29 07:42:40;;;;;;;2.53;0.90;;;22.30;99.90;;;;;;5006421;28;20217;-30
2023/07/29 07:45:08;;;;;;;1.75;0.85;;;22.30;99.90;;;;;;5021814;28;20209;-30
2023/07/29 07:47:37;;;;;;;2.42;1.00;;;22.40;99.90;;;;;;5041528;28;20197;-31
2023/07/29 07:50:05;;;;;;;1.38;1.10;;;22.40;99.90;;;;;;5023834;28;20224;-31
2023/07/29 07:52:34;;;;;;;2.97;0.80;;;22.40;99.90;;;;;;5019804;28;21026;-31
2023/07/29 07:55:06;;;;;;;0.98;0.88;;;22.50;99.90;;;;;;5024219;28;20216;-31
2023/07/29 07:57:33;;;;;;;1.98;1.00;;;22.50;99.90;;;;;;5024058;28;20762;-31
2023/07/29 08:00:00;;;;;;;1.08;0.98;;;22.50;99.90;;;;;;5018888;28;20646;-31
2023/07/29 08:02:30;;;;;;;1.42;1.05;;;22.50;99.90;;;;;;5013386;28;20228;-31
2023/07/29 08:05:01;;;;;;;1.33;1.05;;;22.50;99.90;;;;;;5013765;28;20263;-31
2023/07/29 08:07:31;;;;;;;0.98;0.90;;;22.60;99.90;;;;;;5018008;28;20684;-31
2023/07/29 08:09:58;;;;;;;1.10;0.90;;;22.60;99.90;;;;;;5012366;28;20663;-31
2023/07/29 08:12:26;;;;;;;1.65;1.02;;;22.70;99.90;;;;;;5009046;28;20209;-31
2023/07/29 08:14:53;;;;;;;2.05;1.00;;;22.70;99.90;;;;;;5005577;28;20209;-31
2023/07/29 08:17:20;;;;;;;1.20;0.95;;;22.80;99.90;;;;;;5015136;28;20209;-31
2023/07/29 08:19:47;;;;;;;2.53;1.70;;;22.80;99.90;;;;;;5014097;28;20220;-31
2023/07/29 08:22:16;;;;;;;1.65;1.27;;;22.90;99.90;;;;;;5020327;28;20686;-31
2023/07/29 08:24:46;;;;;;;1.02;0.93;;;22.90;99.90;;;;;;5025720;28;20201;-31
2023/07/29 08:27:13;;;;;;;1.17;1.10;;;23.00;99.90;;;;;;5039642;28;20412;-31
2023/07/29 08:29:42;;;;;;;3.83;0.85;;;23.00;99.90;;;;;;5038510;28;20197;-31
2023/07/29 08:32:17;;;;;;;1.20;1.02;;;23.10;99.90;;;;;;5008208;28;20264;-31
2023/07/29 08:34:44;;;;;;;2.30;0.93;;;23.10;99.90;;;;;;5021143;28;20213;-31
2023/07/29 08:37:12;;;;;;;1.63;1.10;;;23.10;99.90;;;;;;5006886;28;20575;-31
2023/07/29 08:39:41;;;;;;;0.82;0.82;;;23.20;99.90;;;;;;5021092;28;20370;-31
2023/07/29 08:42:11;;;;;;;5.03;1.08;;;23.30;99.90;;;;;;5005442;28;20232;-31
2023/07/29 08:44:46;;;;;;;2.20;0.88;;;23.30;99.90;;;;;;5015101;28;20694;-31
2023/07/29 08:47:13;;;;;;;2.67;1.00;;;23.40;99.90;;;;;;5008188;28;20205;-31
2023/07/29 08:49:41;;;;;;;1.17;0.90;;;23.50;99.90;;;;;;5029362;28;20201;-31
2023/07/29 08:52:11;;;;;;;4.13;1.20;;;23.50;99.90;;;;;;5012809;28;20229;-31
2023/07/29 08:54:41;;;;;;;2.38;1.02;;;23.50;99.90;;;;;;5012758;28;20727;-31
2023/07/29 08:57:09;;;;;;;1.10;0.90;;;23.50;99.90;;;;;;5009072;28;20492;-31
2023/07/29 08:59:36;;;;;;;2.78;1.23;;;23.60;99.90;;;;;;5009890;28;20209;-31
2023/07/29 09:02:04;;;;;;;0.80;0.80;;;23.60;99.90;;;;;;5009280;28;20214;-31
2023/07/29 09:04:31;;;;;;;1.27;1.10;;;23.70;99.90;;;;;;5024759;28;20320;-31
2023/07/29 09:06:59;;;;;;;1.38;1.27;;;23.80;99.90;;;;;;5027328;28;20193;-31
2023/07/29 09:09:26;;;;;;;1.35;1.10;;;23.80;99.90;;;;;;5027019;28;20206;-31
2023/07/29 09:11:54;;;;;;;3.35;1.10;;;23.80;99.90;;;;;;5025976;28;20621;-31
2023/07/29 09:14:38;;;;;;;2.50;1.20;;;23.90;99.90;;;;;;5015654;28;20209;-31
2023/07/29 09:17:10;;;;;;;1.10;0.90;;;24.00;99.90;;;;;;5023708;28;20584;-31
2023/07/29 09:19:37;;;;;;;2.33;1.17;;;24.00;99.90;;;;;;5016120;28;20213;-31
2023/07/29 09:22:08;;;;;;;2.83;1.25;;;24.00;99.90;;;;;;5029934;28;20302;-31
2023/07/29 09:24:37;;;;;;;1.17;1.08;;;24.00;99.90;;;;;;5015961;28;20845;-31
2023/07/29 09:27:05;;;;;;;2.00;1.42;;;24.00;99.90;;;;;;5016404;28;20707;-31
2023/07/29 09:29:36;;;;;;;2.13;1.27;;;24.10;99.90;;;;;;5025400;28;20221;-31
2023/07/29 09:32:23;;;;;;;1.83;1.10;;;24.10;99.90;;;;;;5019889;28;20276;-31
2023/07/29 09:34:51;;;;;;;2.50;1.17;;;24.10;99.90;;;;;;5032690;28;20314;-31
2023/07/29 09:37:21;;;;;;;1.27;1.08;;;24.20;99.90;;;;;;5009150;28;20209;-31
2023/07/29 09:39:50;;;;;;;1.50;1.40;;;24.30;99.90;;;;;;5013561;28;20705;-31
2023/07/29 09:42:19;;;;;;;1.23;1.13;;;24.30;99.90;;;;;;5013508;28;20216;-31
2023/07/29 09:44:50;;;;;;;1.63;1.30;;;24.40;99.90;;;;;;5018684;28;20635;-31
2023/07/29 09:47:26;;;;;;;1.77;1.20;;;24.40;99.90;;;;;;5021392;28;20228;-31
2023/07/29 09:49:53;;;;;;;1.40;1.30;;;24.50;99.90;;;;;;5009169;28;20205;-31
2023/07/29 09:52:23;;;;;;;1.60;1.25;;;24.50;99.90;;;;;;5023150;28;20215;-31
2023/07/29 09:54:54;;;;;;;1.67;1.23;;;24.50;99.90;;;;;;5026980;28;20224;-31
2023/07/29 09:57:24;;;;;;;1.80;1.40;;;24.60;99.90;;;;;;5027129;28;20244;-31
2023/07/29 09:59:55;;;;;;;3.20;1.30;;;24.70;99.90;;;;;;5018044;28;20201;-31
2023/07/29 10:02:24;;;;;;;1.27;1.17;;;24.70;99.90;;;;;;5009769;28;20683;-31
2023/07/29 10:04:52;;;;;;;1.30;1.20;;;24.70;99.90;;;;;;5019486;28;20256;-31
2023/07/29 10:07:20;;;;;;;1.80;1.70;;;24.70;99.90;;;;;;5008946;28;20208;-31
2023/07/29 10:09:50;;;;;;;1.60;1.50;;;24.80;99.90;;;;;;5013108;28;20202;-31
2023/07/29 10:12:21;;;;;;;1.42;1.33;;;24.80;99.90;;;;;;5014434;28;20210;-31
2023/07/29 10:14:50;;;;;;;1.92;1.45;;;24.80;99.90;;;;;;5026177;28;20220;-31
2023/07/29 10:17:20;;;;;;;1.63;1.52;;;24.90;99.90;;;;;;5037625;28;20259;-31
2023/07/29 10:19:48;;;;;;;1.40;1.30;;;24.90;99.90;;;;;;5010168;28;20348;-31
2023/07/29 10:22:23;;;;;;;2.92;1.67;;;24.90;99.90;;;;;;5015351;28;20239;-31
2023/07/29 10:24:56;;;;;;;1.95;1.58;;;25.00;99.90;;;;;;5011515;28;20229;-31
2023/07/29 10:27:25;;;;;;;2.38;1.30;;;25.00;99.90;;;;;;5014094;28;20209;-31
2023/07/29 10:29:55;;;;;;;1.40;1.30;;;25.00;99.90;;;;;;5009626;28;20236;-31
2023/07/29 10:32:28;;;;;;;1.77;1.40;;;25.00;99.90;;;;;;5020672;28;20524;-31
2023/07/29 10:34:56;;;;;;;1.75;1.50;;;25.00;99.90;;;;;;5011066;28;20296;-31
2023/07/29 10:37:25;;;;;;;1.55;1.15;;;25.00;99.90;;;;;;5022644;28;20306;-31
2023/07/29 10:39:58;;;;;;;2.90;1.50;;;25.00;99.90;;;;;;5018905;28;20245;-31
2023/07/29 10:42:28;;;;;;;1.90;1.48;;;25.00;99.90;;;;;;5016084;28;20212;-32
2023/07/29 10:44:55;;;;;;;2.92;1.60;;;25.00;99.90;;;;;;5007863;28;20268;-31
2023/07/29 10:47:29;;;;;;;4.13;1.50;;;25.00;99.90;;;;;;5017014;28;20205;-32
2023/07/29 10:49:58;;;;;;;1.95;1.52;;;25.00;99.90;;;;;;5018622;28;20551;-31
2023/07/29 10:52:56;;;;;;;2.88;1.45;;;24.90;99.90;;;;;;5013842;28;20197;-31
2023/07/29 10:55:36;;;;;;;2.80;1.40;;;24.90;99.90;;;;;;5025038;28;20213;-32
2023/07/29 10:58:12;;;;;;;2.95;1.30;;;24.80;99.90;;;;;;5022599;28;20288;-32
2023/07/29 11:00:46;;;;;;;1.60;1.45;;;24.70;99.90;;;;;;5022822;28;20680;-32
2023/07/29 11:03:14;;;;;;;1.38;1.25;;;24.70;99.90;;;;;;5021900;28;20316;-32
2023/07/29 11:05:51;;;;;;;4.60;1.70;;;24.60;99.90;;;;;;5025083;28;20706;-32
2023/07/29 11:08:28;;;;;;;1.60;1.50;;;24.60;99.90;;;;;;5023839;28;20765;-32
2023/07/29 11:11:21;;;;;;;1.70;1.50;;;24.50;99.90;;;;;;5037616;28;20392;-32
2023/07/29 11:13:48;;;;;;;2.30;1.52;;;24.50;99.90;;;;;;5021129;28;20605;-31
2023/07/29 11:16:16;;;;;;;2.15;1.50;;;24.50;99.90;;;;;;5027267;28;20206;-31
2023/07/29 11:18:48;;;;;;;1.52;1.30;;;24.50;99.90;;;;;;5004127;28;20761;-31
2023/07/29 11:21:16;;;;;;;2.15;1.70;;;24.50;99.90;;;;;;5018532;28;20225;-31
2023/07/29 11:23:44;;;;;;;1.73;1.40;;;24.50;99.90;;;;;;5007397;28;20234;-31
2023/07/29 11:26:12;;;;;;;3.65;1.60;;;24.50;99.90;;;;;;5023715;28;20212;-31
2023/07/29 11:28:40;;;;;;;2.00;1.77;;;24.60;99.90;;;;;;5027564;28;20197;-31
2023/07/29 11:31:08;;;;;;;1.73;1.50;;;24.60;99.90;;;;;;5026271;28;20223;-31
2023/07/29 11:33:38;;;;;;;2.95;1.55;;;24.70;99.90;;;;;;5025872;28;20205;-24
2023/07/29 11:36:05;;;;;;;2.55;1.65;;;24.70;99.90;;;;;;5020104;28;20201;-24
2023/07/29 11:38:36;;;;;;;1.92;1.40;;;24.80;99.90;;;;;;5016700;28;20241;-24
2023/07/29 11:41:07;;;;;;;2.35;1.25;;;24.90;99.90;;;;;;5020947;28;20251;-24
2023/07/29 11:43:39;;;;;;;1.70;1.55;;;24.90;99.90;;;;;;5024342;28;20216;-24
2023/07/29 11:46:08;;;;;;;1.95;1.38;;;24.90;99.90;;;;;;5026317;28;20197;-24
2023/07/29 11:48:35;;;;;;;1.60;1.45;;;25.00;99.90;;;;;;5015679;28;20204;-24
2023/07/29 11:51:03;;;;;;;1.73;1.60;;;25.00;99.90;;;;;;5020932;28;20220;-24
2023/07/29 11:53:31;;;;;;;1.50;1.40;;;25.00;99.90;;;;;;5018164;28;20216;-25
2023/07/29 11:56:01;;;;;;;1.50;1.40;;;25.00;99.90;;;;;;5007631;28;20193;-24
2023/07/29 11:58:41;;;;;;;1.67;1.50;;;25.00;99.90;;;;;;5006819;28;20205;-24
2023/07/29 12:01:10;;;;;;;2.33;1.58;;;25.00;99.90;;;;;;5005833;28;20205;-24
2023/07/29 12:03:39;;;;;;;1.98;1.77;;;25.00;99.90;;;;;;5008427;28;20218;-24
2023/07/29 12:06:11;;;;;;;1.40;1.30;;;25.00;99.90;;;;;;5015656;28;20220;-24
2023/07/29 12:08:38;;;;;;;2.13;1.77;;;25.00;99.90;;;;;;5016513;28;20240;-24
2023/07/29 12:11:10;;;;;;;1.50;1.38;;;25.00;99.90;;;;;;5024153;28;20208;-24
2023/07/29 12:13:42;;;;;;;1.88;1.40;;;25.00;99.90;;;;;;5020635;28;20204;-24
2023/07/29 12:16:09;;;;;;;1.30;1.20;;;25.00;99.90;;;;;;5006947;28;20209;-24
2023/07/29 12:18:38;;;;;;;1.58;1.35;;;25.00;99.90;;;;;;5005096;28;20236;-24
2023/07/29 12:21:06;;;;;;;1.63;1.52;;;25.00;99.90;;;;;;5005615;28;20205;-24
2023/07/29 12:23:33;;;;;;;1.83;1.50;;;25.10;99.90;;;;;;5006145;28;20208;-24
2023/07/29 12:26:03;;;;;;;1.73;1.55;;;25.10;99.90;;;;;;5005654;28;20698;-24
2023/07/29 12:28:30;;;;;;;6.22;1.45;;;25.20;99.90;;;;;;5008698;28;20212;-24
2023/07/29 12:31:01;;;;;;;1.58;1.48;;;25.20;99.90;;;;;;5018062;28;20699;-24
2023/07/29 12:33:39;;;;;;;1.35;1.25;;;25.20;99.90;;;;;;5009920;28;20284;-24
2023/07/29 12:36:06;;;;;;;1.58;1.27;;;25.20;99.90;;;;;;5012698;28;20216;-24
2023/07/29 12:38:33;;;;;;;1.60;1.50;;;25.20;99.90;;;;;;5012322;28;20733;-24
2023/07/29 12:41:03;;;;;;;1.63;1.52;;;25.20;99.90;;;;;;5012991;28;20201;-24
2023/07/29 12:43:36;;;;;;;1.58;1.48;;;25.20;99.90;;;;;;5024053;28;20255;-24
2023/07/29 12:46:03;;;;;;;2.50;1.52;;;25.10;99.90;;;;;;5010991;28;20517;-24
2023/07/29 12:48:30;;;;;;;2.70;1.55;;;25.10;99.90;;;;;;5010473;28;20201;-24
2023/07/29 12:50:57;;;;;;;2.47;1.42;;;25.10;99.90;;;;;;5024684;28;20208;-24
2023/07/29 12:53:24;;;;;;;2.55;1.77;;;25.10;99.90;;;;;;5019637;28;20271;-24
2023/07/29 12:55:54;;;;;;;1.55;1.45;;;25.00;99.90;;;;;;5003894;28;20213;-24
2023/07/29 12:58:21;;;;;;;1.63;1.52;;;25.00;99.90;;;;;;5035492;28;20224;-24
2023/07/29 13:00:48;;;;;;;2.13;1.95;;;24.90;99.90;;;;;;5020425;28;20555;-24